Time;durP1;ratioP1;P1;durP2;ratioP2;P2;SDS_P1;SDS_P2;PMS_P1;PMS_P2;Temp;Humidity;BMP_temperature;BMP_pressure;BME280_temperature;BME280_humidity;BME280_pressure;Samples;Min_cycle;Max_cycle;Signal;HPM_P1;HPM_P2
2023/11/23 00:00:58;;;;;;;69.32;31.23;;;;;;;-146.25;100.00;52637.88;2088710;28;34801;-72
2023/11/23 00:02:06;;;;;;;67.15;30.52;;;;;;;-146.25;100.00;52595.28;2088594;28;38494;-73
2023/11/23 00:03:08;;;;;;;63.38;30.75;;;;;;;-146.25;100.00;52556.75;2088579;28;20044;-73
2023/11/23 00:04:10;;;;;;;69.43;31.13;;;;;;;-146.25;100.00;52619.63;2088353;28;39214;-73
2023/11/23 00:05:14;;;;;;;72.25;33.53;;;;;;;-146.25;100.00;52595.28;2088610;28;36387;-72
2023/11/23 00:06:16;;;;;;;68.53;31.90;;;;;;;-146.25;100.00;52575.00;2089341;28;20751;-73
2023/11/23 00:07:18;;;;;;;65.88;31.40;;;;;;;-146.25;100.00;52650.03;2088592;28;34926;-73
2023/11/23 00:08:20;;;;;;;69.95;33.03;;;;;;;-146.25;100.00;52597.31;2089780;28;20838;-73
2023/11/23 00:09:25;;;;;;;71.18;31.25;;;;;;;-146.25;100.00;52643.97;2088438;28;37692;-72
2023/11/23 00:10:29;;;;;;;70.38;33.05;;;;;;;-146.25;100.00;52617.59;2088943;28;34796;-73
2023/11/23 00:11:30;;;;;;;71.47;31.92;;;;;;;-146.25;100.00;52629.75;2088452;28;32165;-71
2023/11/23 00:12:32;;;;;;;66.70;32.13;;;;;;;-146.25;100.00;52621.66;2088312;28;37336;-72
2023/11/23 00:13:34;;;;;;;66.93;30.75;;;;;;;-146.25;100.00;52631.78;2088494;28;20068;-73
2023/11/23 00:14:36;;;;;;;71.82;32.40;;;;;;;-146.25;100.00;52595.28;2088969;28;38071;-72
2023/11/23 00:15:38;;;;;;;71.50;32.35;;;;;;;-146.25;100.00;52617.59;2088517;28;30916;-73
2023/11/23 00:16:43;;;;;;;72.47;33.10;;;;;;;-146.25;100.00;52573.00;2088067;28;33746;-73
2023/11/23 00:17:44;;;;;;;73.57;33.08;;;;;;;-146.25;100.00;52617.59;2087635;28;32062;-74
2023/11/23 00:18:46;;;;;;;71.55;33.10;;;;;;;-146.25;100.00;52603.41;2090108;28;20052;-73
2023/11/23 00:19:48;;;;;;;74.82;32.65;;;;;;;-146.25;100.00;52595.28;2088392;28;38574;-72
2023/11/23 00:20:50;;;;;;;71.25;32.92;;;;;;;-146.25;100.00;52605.44;2088744;28;36586;-73
2023/11/23 00:21:52;;;;;;;73.47;33.58;;;;;;;-146.25;100.00;52593.25;2087908;28;34537;-73
2023/11/23 00:22:53;;;;;;;70.03;32.75;;;;;;;-146.25;100.00;52619.63;2088078;28;32268;-72
2023/11/23 00:23:57;;;;;;;73.78;32.38;;;;;;;-146.25;100.00;52627.75;2089223;28;20880;-73
2023/11/23 00:24:59;;;;;;;68.90;33.67;;;;;;;-146.25;100.00;52587.19;2088793;28;29059;-73
2023/11/23 00:26:03;;;;;;;69.75;32.70;;;;;;;-146.25;100.00;52591.25;2088295;28;34726;-72
2023/11/23 00:27:05;;;;;;;74.93;33.55;;;;;;;-146.25;100.00;52611.50;2089034;28;31929;-73
2023/11/23 00:28:09;;;;;;;71.20;33.33;;;;;;;-146.25;100.00;52623.69;2088666;28;31906;-72
2023/11/23 00:29:10;;;;;;;71.70;33.45;;;;;;;-146.25;100.00;52621.66;2089299;28;20131;-68
2023/11/23 00:30:13;;;;;;;71.72;33.10;;;;;;;-146.25;100.00;52619.63;2088598;28;29523;-72
2023/11/23 00:31:15;;;;;;;77.25;34.55;;;;;;;-146.25;100.00;52583.13;2089598;28;20040;-73
2023/11/23 00:32:19;;;;;;;73.05;34.33;;;;;;;-146.25;100.00;52615.56;2088988;28;20034;-72
2023/11/23 00:33:21;;;;;;;75.82;34.20;;;;;;;-146.25;100.00;52631.78;2088821;28;29752;-73
2023/11/23 00:34:27;;;;;;;81.55;34.15;;;;;;;-146.25;100.00;52589.22;2088945;28;20841;-72
2023/11/23 00:35:29;;;;;;;71.90;33.10;;;;;;;-146.25;100.00;52595.28;2088427;28;33073;-73
2023/11/23 00:36:34;;;;;;;76.25;33.25;;;;;;;-146.25;100.00;52652.06;2089014;28;20038;-73
2023/11/23 00:37:36;;;;;;;70.30;34.03;;;;;;;-146.25;100.00;52593.25;2089174;28;24196;-73
2023/11/23 00:38:41;;;;;;;72.68;33.05;;;;;;;-146.25;100.00;52581.09;2088422;28;30912;-73
2023/11/23 00:39:43;;;;;;;78.85;36.08;;;;;;;-146.25;100.00;52599.34;2089285;28;20053;-73
2023/11/23 00:40:45;;;;;;;72.68;32.90;;;;;;;-146.25;100.00;52603.41;2089069;28;23845;-73
2023/11/23 00:41:47;;;;;;;74.43;34.25;;;;;;;-146.25;100.00;52611.50;2088374;28;25515;-73
2023/11/23 00:42:49;;;;;;;75.13;32.85;;;;;;;-146.25;100.00;52575.00;2087993;28;31430;-73
2023/11/23 00:43:50;;;;;;;79.72;34.20;;;;;;;-146.25;100.00;52589.22;2088104;28;29241;-73
2023/11/23 00:44:52;;;;;;;79.88;34.80;;;;;;;-146.25;100.00;52581.09;2088245;28;20072;-72
2023/11/23 00:45:54;;;;;;;69.38;33.83;;;;;;;-146.25;100.00;52607.47;2088881;28;31595;-73
2023/11/23 00:46:56;;;;;;;71.20;32.72;;;;;;;-146.25;100.00;52635.84;2088606;28;28562;-73
2023/11/23 00:47:58;;;;;;;69.05;33.85;;;;;;;-146.25;100.00;52583.13;2089218;28;24827;-73
2023/11/23 00:49:00;;;;;;;72.55;33.92;;;;;;;-146.25;100.00;52613.53;2088005;28;34154;-73
2023/11/23 00:50:05;;;;;;;82.72;35.53;;;;;;;-146.25;100.00;52601.38;2088205;28;20044;-73
2023/11/23 00:51:08;;;;;;;77.97;35.05;;;;;;;-146.25;100.00;52595.28;2087705;28;26021;-73
2023/11/23 00:52:09;;;;;;;74.43;34.08;;;;;;;-146.25;100.00;52623.69;2079616;28;34392;-73
2023/11/23 00:53:11;;;;;;;70.32;33.88;;;;;;;-146.25;100.00;52615.56;2079865;28;26990;-71
2023/11/23 00:54:13;;;;;;;77.30;34.80;;;;;;;-146.25;100.00;52623.69;2087908;28;33530;-72
2023/11/23 00:55:16;;;;;;;74.03;34.03;;;;;;;-146.25;100.00;52627.75;2080041;28;20945;-73
2023/11/23 00:56:18;;;;;;;75.50;35.15;;;;;;;-146.25;100.00;52627.75;2088242;28;32353;-73
2023/11/23 00:57:19;;;;;;;76.80;34.75;;;;;;;-146.25;100.00;52607.47;2088280;28;27077;-72
2023/11/23 00:58:21;;;;;;;71.88;34.75;;;;;;;-146.25;100.00;52611.50;2088978;28;28600;-73
2023/11/23 00:59:23;;;;;;;76.65;34.90;;;;;;;-146.25;100.00;52621.66;2087042;28;32545;-72
2023/11/23 01:00:25;;;;;;;76.65;35.70;;;;;;;-146.25;100.00;52619.63;2087903;28;33878;-73
2023/11/23 01:01:27;;;;;;;73.43;34.58;;;;;;;-146.25;100.00;52595.28;2096300;28;30080;-73
2023/11/23 01:02:30;;;;;;;73.13;34.65;;;;;;;-146.25;100.00;52581.09;2088891;28;20131;-73
2023/11/23 01:03:32;;;;;;;76.10;34.70;;;;;;;-146.25;100.00;52607.47;2087913;28;25828;-72
2023/11/23 01:04:37;;;;;;;70.93;34.67;;;;;;;-146.25;100.00;52603.41;2088944;28;29623;-72
2023/11/23 01:05:39;;;;;;;74.35;34.47;;;;;;;-146.25;100.00;52595.28;2086971;28;32293;-72
2023/11/23 01:06:41;;;;;;;76.40;34.03;;;;;;;-146.25;100.00;52605.44;2088117;28;27851;-72
2023/11/23 01:07:45;;;;;;;69.95;34.33;;;;;;;-146.25;100.00;52575.00;2087577;28;28138;-72
2023/11/23 01:08:47;;;;;;;72.00;33.22;;;;;;;-146.25;100.00;52601.38;2088181;28;29438;-73
2023/11/23 01:09:49;;;;;;;72.43;34.50;;;;;;;-146.25;100.00;52625.72;2088416;28;24911;-72
2023/11/23 01:10:53;;;;;;;74.20;36.42;;;;;;;-146.25;100.00;52591.25;2088315;28;26480;-71
2023/11/23 01:11:58;;;;;;;73.28;33.78;;;;;;;-146.25;100.00;52597.31;2088677;28;26945;-72
2023/11/23 01:13:02;;;;;;;74.63;34.08;;;;;;;-146.25;100.00;52635.84;2089337;28;20118;-72
2023/11/23 01:14:04;;;;;;;70.20;34.72;;;;;;;-146.25;100.00;52595.28;2087290;28;38004;-72
2023/11/23 01:15:07;;;;;;;75.05;34.42;;;;;;;-146.25;100.00;52613.53;2079389;28;37338;-72
2023/11/23 01:16:09;;;;;;;75.00;34.15;;;;;;;-146.25;100.00;52625.72;2079222;28;32788;-73
2023/11/23 01:17:10;;;;;;;69.28;32.90;;;;;;;-146.25;100.00;52577.03;2087819;28;31595;-72
2023/11/23 01:18:15;;;;;;;72.75;34.75;;;;;;;-146.25;100.00;52611.50;2088911;28;20045;-72
2023/11/23 01:19:17;;;;;;;67.05;34.83;;;;;;;-146.25;100.00;52617.59;2088006;28;27170;-72
2023/11/23 01:20:19;;;;;;;70.45;33.65;;;;;;;-146.25;100.00;52609.50;2079532;28;27549;-72
2023/11/23 01:21:21;;;;;;;72.80;35.20;;;;;;;-146.25;100.00;52631.78;2079209;28;25504;-72
2023/11/23 01:22:22;;;;;;;76.93;34.78;;;;;;;-146.25;100.00;52603.41;2088148;28;20042;-72
2023/11/23 01:23:24;;;;;;;73.05;34.92;;;;;;;-146.25;100.00;52631.78;2088711;28;28104;-72
2023/11/23 01:24:26;;;;;;;69.22;33.20;;;;;;;-146.25;100.00;52593.25;2087649;28;28256;-71
2023/11/23 01:25:30;;;;;;;71.20;34.88;;;;;;;-146.25;100.00;52613.53;2088098;28;31723;-72
2023/11/23 01:26:32;;;;;;;70.32;33.65;;;;;;;-146.25;100.00;52619.63;2080032;28;20073;-72
2023/11/23 01:27:35;;;;;;;73.30;35.05;;;;;;;-146.25;100.00;52583.13;2087945;28;27962;-72
2023/11/23 01:28:36;;;;;;;77.40;33.85;;;;;;;-146.25;100.00;52593.25;2087769;28;23637;-72
2023/11/23 01:29:38;;;;;;;67.60;33.65;;;;;;;-146.25;100.00;52568.94;2079203;28;33982;-72
2023/11/23 01:30:40;;;;;;;74.50;35.05;;;;;;;-146.25;100.00;52597.31;2088088;28;20084;-72
2023/11/23 01:31:41;;;;;;;76.20;34.17;;;;;;;-146.25;100.00;52619.63;2088642;28;31431;-73
2023/11/23 01:32:43;;;;;;;64.47;33.90;;;;;;;-146.25;100.00;52609.50;2087375;28;28397;-72
2023/11/23 01:33:45;;;;;;;75.38;34.85;;;;;;;-146.25;100.00;52617.59;2087590;28;30009;-72
2023/11/23 01:34:47;;;;;;;71.10;34.20;;;;;;;-146.25;100.00;52583.13;2088270;28;28069;-72
2023/11/23 01:35:51;;;;;;;72.75;35.33;;;;;;;-146.25;100.00;52587.19;2088462;28;24798;-72
2023/11/23 01:36:52;;;;;;;75.85;35.85;;;;;;;-146.25;100.00;52607.47;2088152;28;28818;-72
2023/11/23 01:37:54;;;;;;;71.45;34.95;;;;;;;-146.25;100.00;52583.13;2087687;28;25315;-72
2023/11/23 01:38:56;;;;;;;69.57;34.20;;;;;;;-146.25;100.00;52589.22;2087594;28;25760;-71
2023/11/23 01:39:58;;;;;;;73.90;34.90;;;;;;;-146.25;100.00;52599.34;2088410;28;32525;-73
2023/11/23 01:40:59;;;;;;;72.00;34.92;;;;;;;-146.25;100.00;52589.22;2088074;28;29883;-72
2023/11/23 01:42:01;;;;;;;75.03;34.17;;;;;;;-146.25;100.00;52585.16;2088657;28;29241;-73
2023/11/23 01:43:10;;;;;;;69.25;33.60;;;;;;;-146.25;100.00;52583.13;2088204;28;28258;-72
2023/11/23 01:44:12;;;;;;;69.80;33.28;;;;;;;-146.25;100.00;52615.56;2079591;28;24878;-71
2023/11/23 01:45:14;;;;;;;65.07;33.38;;;;;;;-146.25;100.00;52581.09;2079523;28;32798;-72
2023/11/23 01:46:17;;;;;;;73.97;35.28;;;;;;;-146.25;100.00;52597.31;2088377;28;20055;-73
2023/11/23 01:47:19;;;;;;;70.70;34.45;;;;;;;-146.25;100.00;52601.38;2087791;28;26968;-72
2023/11/23 01:48:21;;;;;;;63.30;32.88;;;;;;;-146.25;100.00;52603.41;2079781;28;26134;-73
2023/11/23 01:49:25;;;;;;;68.95;34.28;;;;;;;-146.25;100.00;52568.94;2087463;28;23074;-72
2023/11/23 01:50:29;;;;;;;66.75;35.33;;;;;;;-146.25;100.00;52560.81;2087839;28;30259;-73
2023/11/23 01:51:31;;;;;;;66.78;33.85;;;;;;;-146.25;100.00;52599.34;2078885;28;34669;-72
2023/11/23 01:52:33;;;;;;;67.05;34.70;;;;;;;-146.25;100.00;52587.19;2080211;28;30540;-72
2023/11/23 01:53:35;;;;;;;70.03;35.00;;;;;;;-146.25;100.00;52617.59;2087250;28;30310;-72
2023/11/23 01:54:38;;;;;;;68.03;34.88;;;;;;;-146.25;100.00;52573.00;2088858;28;20945;-73
2023/11/23 01:55:40;;;;;;;65.25;33.35;;;;;;;-146.25;100.00;52611.50;2088414;28;20748;-72
2023/11/23 01:56:44;;;;;;;58.80;33.08;;;;;;;-146.25;100.00;52591.25;2079757;28;20147;-73
2023/11/23 01:57:51;;;;;;;61.60;33.65;;;;;;;-146.25;100.00;52581.09;2072252;28;20969;-72
2023/11/23 01:58:53;;;;;;;62.00;32.72;;;;;;;-146.25;100.00;52597.31;2072482;28;20038;-72
2023/11/23 01:59:57;;;;;;;70.47;34.20;;;;;;;-146.25;100.00;52568.94;2080124;28;20046;-72
2023/11/23 02:01:01;;;;;;;57.72;31.67;;;;;;;-146.25;100.00;52607.47;2095520;28;28200;-73
2023/11/23 02:02:05;;;;;;;59.25;33.63;;;;;;;-146.25;100.00;52617.59;2087090;28;37156;-72
2023/11/23 02:03:07;;;;;;;61.42;34.08;;;;;;;-146.25;100.00;52583.13;2088221;28;20041;-72
2023/11/23 02:04:10;;;;;;;60.10;32.80;;;;;;;-146.25;100.00;52623.69;2087759;28;20913;-71
2023/11/23 02:05:14;;;;;;;58.70;32.42;;;;;;;-146.25;100.00;52615.56;2088162;28;20172;-72
2023/11/23 02:06:16;;;;;;;68.93;33.95;;;;;;;-146.25;100.00;52603.41;2086987;28;31727;-72
2023/11/23 02:07:18;;;;;;;58.97;32.55;;;;;;;-146.25;100.00;52607.47;2087859;28;29461;-72
2023/11/23 02:08:20;;;;;;;57.63;31.92;;;;;;;-146.25;100.00;52570.97;2087088;28;33813;-71
2023/11/23 02:09:22;;;;;;;62.33;32.72;;;;;;;-146.25;100.00;52601.38;2088117;28;34520;-72
2023/11/23 02:10:23;;;;;;;62.65;33.35;;;;;;;-146.25;100.00;52615.56;2087835;28;31848;-72
2023/11/23 02:11:27;;;;;;;60.00;33.47;;;;;;;-146.25;100.00;52573.00;2086932;28;20232;-73
2023/11/23 02:12:35;;;;;;;61.13;33.97;;;;;;;-146.25;100.00;52581.09;2088249;28;20849;-72
2023/11/23 02:13:38;;;;;;;59.00;33.13;;;;;;;-146.25;100.00;52566.91;2088087;28;20154;-72
2023/11/23 02:14:41;;;;;;;61.72;32.97;;;;;;;-146.25;100.00;52591.25;2087321;28;27424;-71
2023/11/23 02:15:42;;;;;;;56.22;31.30;;;;;;;-146.25;100.00;52581.09;2088263;28;26214;-72
2023/11/23 02:16:46;;;;;;;60.15;31.63;;;;;;;-146.25;100.00;52550.69;2086705;28;27906;-72
2023/11/23 02:18:02;;;;;;;61.45;33.28;;;;;;;-146.25;100.00;52595.28;2088221;28;20947;-72
2023/11/23 02:19:04;;;;;;;57.10;31.40;;;;;;;-146.25;100.00;52593.25;2088331;28;26382;-72
2023/11/23 02:20:09;;;;;;;63.05;32.08;;;;;;;-146.25;100.00;52579.06;2087497;28;30802;-73
2023/11/23 02:21:11;;;;;;;52.72;30.48;;;;;;;-146.25;100.00;52597.31;2086803;28;31559;-73
2023/11/23 02:22:14;;;;;;;58.13;31.73;;;;;;;-146.25;100.00;52595.28;2088314;28;27507;-71
2023/11/23 02:23:16;;;;;;;53.10;31.45;;;;;;;-146.25;100.00;52595.28;2087372;28;25547;-72
2023/11/23 02:24:18;;;;;;;61.95;32.30;;;;;;;-146.25;100.00;52587.19;2087686;28;32728;-71
2023/11/23 02:25:19;;;;;;;57.78;32.88;;;;;;;-146.25;100.00;52601.38;2087690;28;31451;-73
2023/11/23 02:26:21;;;;;;;55.20;31.23;;;;;;;-146.25;100.00;52611.50;2088557;28;24784;-72
2023/11/23 02:27:23;;;;;;;61.65;32.85;;;;;;;-146.25;100.00;52583.13;2087082;28;34638;-72
2023/11/23 02:28:25;;;;;;;57.78;32.65;;;;;;;-146.25;100.00;52609.50;2087320;28;33721;-72
2023/11/23 02:29:27;;;;;;;56.13;32.95;;;;;;;-146.25;100.00;52619.63;2087221;28;30798;-72
2023/11/23 02:30:28;;;;;;;59.50;31.83;;;;;;;-146.25;100.00;52566.91;2087354;28;36628;-71
2023/11/23 02:31:34;;;;;;;55.47;30.98;;;;;;;-146.25;100.00;52579.06;2089089;28;20037;-71
2023/11/23 02:32:36;;;;;;;57.72;32.22;;;;;;;-146.25;100.00;52585.16;2088136;28;26317;-72
2023/11/23 02:33:38;;;;;;;56.22;32.92;;;;;;;-146.25;100.00;52609.50;2087995;28;27648;-73
2023/11/23 02:34:40;;;;;;;61.22;32.72;;;;;;;-146.25;100.00;52585.16;2087788;28;35646;-72
2023/11/23 02:35:42;;;;;;;57.70;32.78;;;;;;;-146.25;100.00;52589.22;2087086;28;31803;-72
2023/11/23 02:36:47;;;;;;;56.13;32.05;;;;;;;-146.25;100.00;52583.13;2087170;28;27299;-72
2023/11/23 02:37:48;;;;;;;53.03;31.83;;;;;;;-146.25;100.00;52609.50;2087119;28;32061;-72
2023/11/23 02:38:50;;;;;;;58.60;30.95;;;;;;;-146.25;100.00;52607.47;2087557;28;27270;-72
2023/11/23 02:39:52;;;;;;;52.42;31.52;;;;;;;-146.25;100.00;52591.25;2087751;28;34427;-71
2023/11/23 02:40:54;;;;;;;60.58;32.20;;;;;;;-146.25;100.00;52645.97;2088193;28;29900;-72
2023/11/23 02:41:59;;;;;;;64.63;30.80;;;;;;;-146.25;100.00;52621.66;2087985;28;26994;-72
2023/11/23 02:43:06;;;;;;;56.33;31.45;;;;;;;-146.25;100.00;52579.06;2087634;28;32259;-72
2023/11/23 02:44:10;;;;;;;57.45;32.58;;;;;;;-146.25;100.00;52609.50;2079200;28;27775;-73
2023/11/23 02:45:12;;;;;;;58.45;31.52;;;;;;;-146.25;100.00;52595.28;2080022;28;27798;-71
2023/11/23 02:46:15;;;;;;;53.10;31.73;;;;;;;-146.25;100.00;52591.25;2087867;28;20104;-72
2023/11/23 02:47:17;;;;;;;63.03;33.10;;;;;;;-146.25;100.00;52627.75;2087618;28;27004;-73
2023/11/23 02:48:19;;;;;;;60.75;32.72;;;;;;;-146.25;100.00;52570.97;2087926;28;27146;-72
2023/11/23 02:49:21;;;;;;;59.13;32.20;;;;;;;-146.25;100.00;52595.28;2087873;28;28142;-73
2023/11/23 02:50:22;;;;;;;61.83;33.30;;;;;;;-146.25;100.00;52558.78;2088271;28;25302;-73
2023/11/23 02:51:25;;;;;;;56.47;31.48;;;;;;;-146.25;100.00;52631.78;2078679;28;28264;-72
2023/11/23 02:52:27;;;;;;;68.13;32.67;;;;;;;-146.25;100.00;52595.28;2079159;28;29895;-72
2023/11/23 02:53:31;;;;;;;61.00;32.05;;;;;;;-146.25;100.00;52609.50;2088740;28;20076;-71
2023/11/23 02:54:35;;;;;;;56.45;31.15;;;;;;;-146.25;100.00;52619.63;2088769;28;20120;-72
2023/11/23 02:55:37;;;;;;;62.42;34.75;;;;;;;-146.25;100.00;52581.09;2088083;28;28461;-72
2023/11/23 02:56:39;;;;;;;60.78;32.90;;;;;;;-146.25;100.00;52615.56;2087115;28;30846;-73
2023/11/23 02:57:42;;;;;;;57.33;31.58;;;;;;;-146.25;100.00;52625.72;2087098;28;31106;-72
2023/11/23 02:58:43;;;;;;;55.67;31.48;;;;;;;-146.25;100.00;52609.50;2086938;28;30524;-73
2023/11/23 02:59:45;;;;;;;57.20;31.25;;;;;;;-146.25;100.00;52589.22;2087266;28;26077;-72
2023/11/23 03:00:53;;;;;;;57.72;32.33;;;;;;;-146.25;100.00;52564.88;2087507;28;20049;-73
2023/11/23 03:01:56;;;;;;;62.20;32.17;;;;;;;-146.25;100.00;52542.56;2088422;28;20162;-72
2023/11/23 03:02:58;;;;;;;65.55;32.45;;;;;;;-146.25;100.00;52619.63;2088008;28;29076;-73
2023/11/23 03:04:00;;;;;;;54.28;31.27;;;;;;;-146.25;100.00;52581.09;2087981;28;25265;-72
2023/11/23 03:05:05;;;;;;;64.03;32.97;;;;;;;-146.25;100.00;52583.13;2088354;28;20033;-73
2023/11/23 03:06:10;;;;;;;58.03;32.65;;;;;;;-146.25;100.00;52575.00;2088161;28;22266;-72
2023/11/23 03:07:12;;;;;;;56.92;30.52;;;;;;;-146.25;100.00;52575.00;2087149;28;36282;-72
2023/11/23 03:08:14;;;;;;;58.53;30.88;;;;;;;-146.25;100.00;52573.00;2078872;28;31546;-72
2023/11/23 03:09:19;;;;;;;54.10;30.45;;;;;;;-146.25;100.00;52587.19;2078784;28;33992;-72
2023/11/23 03:10:21;;;;;;;57.63;29.92;;;;;;;-146.25;100.00;52605.44;2087615;28;21010;-73
2023/11/23 03:11:26;;;;;;;55.85;30.63;;;;;;;-146.25;100.00;52583.13;2087934;28;29335;-73
2023/11/23 03:12:28;;;;;;;53.65;30.60;;;;;;;-146.25;100.00;52603.41;2088243;28;21814;-73
2023/11/23 03:13:30;;;;;;;61.60;30.40;;;;;;;-146.25;100.00;52577.03;2086924;28;35767;-73
2023/11/23 03:14:34;;;;;;;59.90;30.83;;;;;;;-146.25;100.00;52585.16;2087810;28;20037;-71
2023/11/23 03:15:38;;;;;;;58.60;30.48;;;;;;;-146.25;100.00;52585.16;2087357;28;27359;-72
2023/11/23 03:16:41;;;;;;;54.50;30.05;;;;;;;-146.25;100.00;52603.41;2087970;28;28906;-72
2023/11/23 03:17:43;;;;;;;60.97;29.98;;;;;;;-146.25;100.00;52611.50;2087052;28;32573;-73
2023/11/23 03:18:45;;;;;;;53.60;29.58;;;;;;;-146.25;100.00;52633.81;2087406;28;25993;-73
2023/11/23 03:19:47;;;;;;;53.50;30.55;;;;;;;-146.25;100.00;52593.25;2087256;28;23413;-73
2023/11/23 03:20:49;;;;;;;54.53;28.25;;;;;;;-146.25;100.00;52601.38;2087194;28;32013;-72
2023/11/23 03:21:51;;;;;;;53.45;28.65;;;;;;;-146.25;100.00;52593.25;2086742;28;31585;-73
2023/11/23 03:22:53;;;;;;;51.28;27.75;;;;;;;-146.25;100.00;52609.50;2088197;28;29928;-71
2023/11/23 03:23:55;;;;;;;53.40;29.00;;;;;;;-146.25;100.00;52595.28;2088180;28;36480;-73
2023/11/23 03:25:00;;;;;;;51.92;28.45;;;;;;;-146.25;100.00;52609.50;2088947;28;20049;-73
2023/11/23 03:26:03;;;;;;;50.35;27.55;;;;;;;-146.25;100.00;52587.19;2089991;28;20172;-73
2023/11/23 03:27:05;;;;;;;51.92;28.27;;;;;;;-146.25;100.00;52599.34;2088665;28;29264;-73
2023/11/23 03:28:07;;;;;;;53.83;28.27;;;;;;;-146.25;100.00;52619.63;2088405;28;32508;-74
2023/11/23 03:29:09;;;;;;;54.65;29.58;;;;;;;-146.25;100.00;52577.03;2089445;28;20172;-72
2023/11/23 03:30:11;;;;;;;47.53;27.23;;;;;;;-146.25;100.00;52601.38;2088736;28;29828;-73
2023/11/23 03:31:13;;;;;;;52.92;27.02;;;;;;;-146.25;100.00;52619.63;2089383;28;20771;-72
2023/11/23 03:32:16;;;;;;;48.92;27.42;;;;;;;-146.25;100.00;52623.69;2089467;28;20115;-73
2023/11/23 03:33:18;;;;;;;46.33;26.42;;;;;;;-146.25;100.00;52599.34;2089588;28;20041;-72
2023/11/23 03:34:20;;;;;;;47.22;26.55;;;;;;;-146.25;100.00;52583.13;2089432;28;20046;-73
2023/11/23 03:35:22;;;;;;;48.55;27.08;;;;;;;-146.25;100.00;52593.25;2088982;28;36391;-72
2023/11/23 03:36:24;;;;;;;51.92;25.83;;;;;;;-146.25;100.00;52631.78;2088697;28;35498;-73
2023/11/23 03:37:27;;;;;;;48.75;26.77;;;;;;;-146.25;100.00;52597.31;2088893;28;30685;-72
2023/11/23 03:38:28;;;;;;;46.28;26.45;;;;;;;-146.25;100.00;52595.28;2089785;28;20107;-73
2023/11/23 03:39:30;;;;;;;48.75;26.23;;;;;;;-146.25;100.00;52564.88;2089184;28;32866;-73
2023/11/23 03:40:32;;;;;;;48.65;26.15;;;;;;;-146.25;100.00;52601.38;2088931;28;20077;-72
2023/11/23 03:41:36;;;;;;;41.35;25.13;;;;;;;-146.25;100.00;52589.22;2088236;28;35963;-72
2023/11/23 03:42:38;;;;;;;49.90;24.92;;;;;;;-146.25;100.00;52595.28;2088960;28;32674;-73
2023/11/23 03:43:40;;;;;;;45.97;24.48;;;;;;;-146.25;100.00;52564.88;2089269;28;20135;-73
2023/11/23 03:44:41;;;;;;;43.38;25.80;;;;;;;-146.25;100.00;52599.34;2088551;28;38945;-73
2023/11/23 03:45:43;;;;;;;43.55;24.63;;;;;;;-146.25;100.00;52607.47;2089329;28;20769;-72
2023/11/23 03:46:45;;;;;;;43.38;24.60;;;;;;;-146.25;100.00;52601.38;2088317;28;37869;-73
2023/11/23 03:47:49;;;;;;;48.08;25.65;;;;;;;-146.25;100.00;52623.69;2089602;28;20822;-71
2023/11/23 03:48:50;;;;;;;41.20;24.33;;;;;;;-146.25;100.00;52603.41;2089412;28;20104;-73
2023/11/23 03:49:53;;;;;;;38.90;23.80;;;;;;;-146.25;100.00;52566.91;2088793;28;38278;-72
2023/11/23 03:50:55;;;;;;;43.40;24.27;;;;;;;-146.25;100.00;52583.13;2089022;28;35350;-73
2023/11/23 03:51:57;;;;;;;40.20;24.20;;;;;;;-146.25;100.00;52615.56;2088024;28;36585;-73
2023/11/23 03:52:59;;;;;;;46.33;24.02;;;;;;;-146.25;100.00;52605.44;2088458;28;36322;-73
2023/11/23 03:54:02;;;;;;;48.88;24.35;;;;;;;-146.25;100.00;52611.50;2088867;28;36697;-73
2023/11/23 03:55:05;;;;;;;46.28;24.60;;;;;;;-146.25;100.00;52609.50;2088756;28;20092;-73
2023/11/23 03:56:07;;;;;;;38.55;21.95;;;;;;;-146.25;100.00;52550.69;2088204;28;37656;-73
2023/11/23 03:57:12;;;;;;;38.83;21.95;;;;;;;-146.25;100.00;52605.44;2089077;28;35585;-73
2023/11/23 03:58:16;;;;;;;46.30;23.38;;;;;;;-146.25;100.00;52583.13;2088768;28;33569;-73
2023/11/23 03:59:18;;;;;;;40.10;23.92;;;;;;;-146.25;100.00;52599.34;2089510;28;20932;-73
2023/11/23 04:00:23;;;;;;;43.70;22.90;;;;;;;-146.25;100.00;52603.41;2088916;28;33280;-73
2023/11/23 04:01:25;;;;;;;40.42;22.55;;;;;;;-146.25;100.00;52607.47;2090005;28;20909;-73
2023/11/23 04:02:27;;;;;;;39.58;22.63;;;;;;;-146.25;100.00;52591.25;2088365;28;35237;-72
2023/11/23 04:03:28;;;;;;;39.47;21.88;;;;;;;-146.25;100.00;52605.44;2088865;28;34506;-73
2023/11/23 04:04:31;;;;;;;45.03;22.45;;;;;;;-146.25;100.00;52615.56;2088863;28;35318;-73
2023/11/23 04:05:33;;;;;;;38.65;22.15;;;;;;;-146.25;100.00;52631.78;2088042;28;35135;-71
2023/11/23 04:06:34;;;;;;;38.10;21.65;;;;;;;-146.25;100.00;52577.03;2088590;28;20169;-73
2023/11/23 04:07:36;;;;;;;41.28;21.98;;;;;;;-146.25;100.00;52609.50;2088719;28;33831;-73
2023/11/23 04:08:39;;;;;;;40.38;21.48;;;;;;;-146.25;100.00;52599.34;2088238;28;37780;-71
2023/11/23 04:09:43;;;;;;;37.15;21.05;;;;;;;-146.25;100.00;52615.56;2088747;28;20041;-73
2023/11/23 04:10:45;;;;;;;32.13;20.55;;;;;;;-146.25;100.00;52593.25;2087945;28;37848;-73
2023/11/23 04:11:47;;;;;;;38.05;21.65;;;;;;;-146.25;100.00;52603.41;2088534;28;31943;-73
2023/11/23 04:12:51;;;;;;;32.92;20.63;;;;;;;-146.25;100.00;52597.31;2089329;28;20049;-72
2023/11/23 04:13:53;;;;;;;36.97;21.23;;;;;;;-146.25;100.00;52611.50;2088668;28;37876;-72
2023/11/23 04:14:56;;;;;;;36.13;21.02;;;;;;;-146.25;100.00;52619.63;2088623;28;33027;-73
2023/11/23 04:15:58;;;;;;;34.83;20.25;;;;;;;-146.25;100.00;52605.44;2089472;28;20048;-73
2023/11/23 04:17:00;;;;;;;36.90;20.02;;;;;;;-146.25;100.00;52573.00;2088878;28;33384;-72
2023/11/23 04:18:01;;;;;;;38.03;21.40;;;;;;;-146.25;100.00;52609.50;2088378;28;33401;-73
2023/11/23 04:19:03;;;;;;;35.55;19.73;;;;;;;-146.25;100.00;52587.19;2089437;28;20037;-72
2023/11/23 04:20:06;;;;;;;38.00;20.52;;;;;;;-146.25;100.00;52593.25;2088613;28;35527;-73
2023/11/23 04:21:08;;;;;;;38.05;19.98;;;;;;;-146.25;100.00;52568.94;2088726;28;32206;-73
2023/11/23 04:22:10;;;;;;;36.75;19.73;;;;;;;-146.25;100.00;52603.41;2088844;28;34105;-73
2023/11/23 04:23:11;;;;;;;35.92;19.60;;;;;;;-146.25;100.00;52558.78;2089081;28;35692;-73
2023/11/23 04:24:16;;;;;;;33.60;20.02;;;;;;;-146.25;100.00;52611.50;2088703;28;35101;-72
2023/11/23 04:25:18;;;;;;;36.88;19.42;;;;;;;-146.25;100.00;52595.28;2089278;28;20037;-71
2023/11/23 04:26:20;;;;;;;35.38;19.52;;;;;;;-146.25;100.00;52599.34;2088754;28;31343;-73
2023/11/23 04:27:24;;;;;;;37.55;19.80;;;;;;;-146.25;100.00;52585.16;2088479;28;35094;-73
2023/11/23 04:28:25;;;;;;;33.13;19.90;;;;;;;-146.25;100.00;52605.44;2088524;28;36186;-73
2023/11/23 04:29:27;;;;;;;32.75;18.77;;;;;;;-146.25;100.00;52611.50;2088717;28;37841;-73
2023/11/23 04:30:29;;;;;;;31.92;19.40;;;;;;;-146.25;100.00;52633.81;2088647;28;35184;-74
2023/11/23 04:31:31;;;;;;;32.55;18.05;;;;;;;-146.25;100.00;52591.25;2088542;28;35560;-73
2023/11/23 04:32:33;;;;;;;34.55;18.15;;;;;;;-146.25;100.00;52591.25;2088572;28;37602;-72
2023/11/23 04:33:35;;;;;;;31.65;17.98;;;;;;;-146.25;100.00;52603.41;2089171;28;20034;-73
2023/11/23 04:34:37;;;;;;;34.85;18.40;;;;;;;-146.25;100.00;52566.91;2087667;28;39390;-73
2023/11/23 04:35:39;;;;;;;26.65;17.33;;;;;;;-146.25;100.00;52603.41;2088867;28;30875;-73
2023/11/23 04:36:40;;;;;;;35.25;17.73;;;;;;;-146.25;100.00;52617.59;2088098;28;36019;-73
2023/11/23 04:37:42;;;;;;;30.35;18.15;;;;;;;-146.25;100.00;52587.19;2088789;28;36875;-73
2023/11/23 04:38:44;;;;;;;32.50;17.60;;;;;;;-146.25;100.00;52589.22;2089123;28;20164;-73